createdAt,value
2023-05-17T05:01:39.308Z,12.35
2023-05-17T05:04:26.056Z,12.37
2023-05-17T05:07:12.705Z,12.65
2023-05-17T05:10:03.031Z,12.32
2023-05-17T05:12:50.749Z,12.76
2023-05-17T08:45:33.903Z,17.06
2023-05-17T08:48:20.940Z,17.23
2023-05-17T08:51:09.865Z,16.70
2023-05-17T08:53:56.764Z,16.35
2023-05-17T08:56:44.329Z,16.36
2023-05-17T08:59:33.879Z,16.50
2023-05-17T09:02:24.263Z,17.46
2023-05-17T09:05:13.502Z,16.75
2023-05-17T09:08:00.937Z,16.70
2023-05-17T09:10:47.452Z,17.62
2023-05-17T09:13:34.334Z,17.98
2023-05-17T09:16:22.164Z,16.94
2023-05-17T09:19:17.028Z,16.99
2023-05-17T09:22:05.538Z,16.94
2023-05-17T09:24:52.237Z,17.46
2023-05-17T09:27:39.237Z,17.47
2023-05-17T09:30:28.726Z,17.22
2023-05-17T09:33:17.779Z,17.90
2023-05-17T09:36:19.162Z,17.79
2023-05-17T09:39:09.087Z,17.30
2023-05-17T09:41:58.062Z,17.22
2023-05-17T09:44:49.556Z,18.07
2023-05-17T09:47:36.271Z,17.79
2023-05-17T09:50:26.027Z,18.61
2023-05-17T09:53:28.956Z,18.18
2023-05-17T09:56:19.719Z,18.23
2023-05-17T09:59:12.639Z,17.98
2023-05-17T10:02:00.694Z,17.99
2023-05-17T10:04:50.407Z,18.44
2023-05-17T10:10:46.453Z,18.72
2023-05-17T10:13:36.871Z,19.28
2023-05-17T10:19:27.810Z,18.20
2023-05-17T10:22:22.697Z,18.28
2023-05-17T10:25:11.494Z,18.18
2023-05-17T10:28:02.033Z,17.92
2023-05-17T10:30:48.535Z,17.72
2023-05-17T10:33:35.274Z,17.34
2023-05-17T10:36:22.442Z,17.57
2023-05-17T10:39:09.456Z,19.08
2023-05-17T10:42:13.600Z,18.91
2023-05-17T10:45:04.051Z,18.39
2023-05-17T10:47:52.635Z,18.38
2023-05-17T10:50:47.403Z,18.58
2023-05-17T10:54:09.195Z,18.14
2023-05-17T10:56:56.107Z,18.53
2023-05-17T10:59:57.861Z,18.77
2023-05-17T11:02:48.522Z,18.93
2023-05-17T11:05:43.428Z,18.47
2023-05-17T11:08:32.089Z,18.03
2023-05-17T11:11:20.941Z,18.54
2023-05-17T11:14:11.865Z,18.42
2023-05-17T11:16:58.531Z,18.05
2023-05-17T11:20:03.418Z,18.03
2023-05-17T11:22:56.091Z,18.39
2023-05-17T11:25:42.951Z,18.88
2023-05-17T11:28:35.495Z,18.43
2023-05-17T11:31:31.953Z,18.42
2023-05-17T11:34:19.353Z,18.25
2023-05-17T11:37:11.925Z,18.31
2023-05-17T11:40:07.085Z,18.45
2023-05-17T11:43:15.585Z,17.93
2023-05-17T11:46:06.824Z,18.29
2023-05-17T11:48:54.306Z,18.64
2023-05-17T11:51:43.801Z,18.39
2023-05-17T11:54:31.845Z,18.36
2023-05-17T11:57:20.379Z,18.75
2023-05-17T12:00:10.769Z,19.00
2023-05-17T12:03:20.225Z,18.83
2023-05-17T12:06:09.475Z,18.76
2023-05-17T12:08:56.087Z,19.28
2023-05-17T12:11:44.396Z,18.49
2023-05-17T12:14:32.947Z,18.19
2023-05-17T12:17:29.298Z,18.21
2023-05-17T12:20:18.115Z,19.76
2023-05-17T12:23:05.094Z,19.00
2023-05-17T12:25:51.841Z,18.25
2023-05-17T12:28:39.578Z,18.59
2023-05-17T12:31:28.572Z,17.98
2023-05-17T12:34:19.208Z,18.08
2023-05-17T12:37:10.620Z,18.79
2023-05-17T12:40:02.757Z,19.59
2023-05-17T12:42:50.237Z,19.50
2023-05-17T12:45:36.568Z,20.54
2023-05-17T12:48:26.918Z,19.15
2023-05-17T12:51:16.391Z,18.65
2023-05-17T12:54:05.159Z,18.53
2023-05-17T12:56:51.645Z,19.50
2023-05-17T12:59:49.346Z,19.57
2023-05-17T13:02:37.336Z,19.87
2023-05-17T13:05:24.770Z,19.97
2023-05-17T13:08:21.216Z,19.08
2023-05-17T13:11:11.096Z,18.89
2023-05-17T13:13:57.771Z,18.91
2023-05-17T13:16:44.467Z,18.79
2023-05-17T13:19:31.100Z,18.79
2023-05-17T13:22:19.867Z,18.16
2023-05-17T13:25:07.393Z,18.79
2023-05-17T13:27:56.761Z,18.08
2023-05-17T13:30:49.792Z,19.23
2023-05-17T13:33:36.386Z,18.14
2023-05-17T13:36:22.714Z,18.22
2023-05-17T13:39:08.864Z,19.31
2023-05-17T13:41:55.328Z,18.59
2023-05-17T13:44:42.988Z,18.87
2023-05-17T13:47:32.044Z,19.14
2023-05-17T13:50:19.464Z,18.60
2023-05-17T13:53:05.615Z,18.34
2023-05-17T13:55:52.309Z,19.82
2023-05-17T13:58:38.820Z,19.12
2023-05-17T14:01:26.553Z,19.19
2023-05-17T14:04:13.168Z,19.37
2023-05-17T14:06:59.980Z,19.16
2023-05-17T14:09:46.791Z,19.76
2023-05-17T14:12:33.284Z,19.21
2023-05-17T14:15:20.064Z,18.72
2023-05-17T14:18:08.585Z,18.86
2023-05-17T14:20:54.909Z,19.24
2023-05-17T14:23:41.685Z,19.22
2023-05-17T14:26:28.102Z,19.37
2023-05-17T14:29:14.504Z,19.67
2023-05-17T14:32:01.008Z,19.26
2023-05-17T14:34:52.032Z,20.49
2023-05-17T14:37:39.003Z,19.32
2023-05-17T14:40:25.350Z,19.59
2023-05-17T14:43:12.245Z,20.13
2023-05-17T14:45:58.585Z,20.22
2023-05-17T14:48:48.149Z,19.95
2023-05-17T14:51:35.850Z,20.34
2023-05-17T14:54:22.497Z,20.57
2023-05-17T14:57:44.236Z,20.91
2023-05-17T15:01:11.188Z,21.21
2023-05-17T15:03:59.827Z,20.41
2023-05-17T15:06:47.902Z,21.16
2023-05-17T15:09:41.255Z,20.10
2023-05-17T15:12:27.626Z,20.30
2023-05-17T15:15:16.062Z,19.83
2023-05-17T15:18:02.477Z,20.69
2023-05-17T15:20:49.135Z,20.91
2023-05-17T15:23:39.533Z,20.45
2023-05-17T15:26:26.365Z,21.04
2023-05-17T15:29:13.019Z,20.52
2023-05-17T15:31:59.890Z,20.34
2023-05-17T15:34:46.698Z,20.90
2023-05-17T15:37:33.062Z,20.44
2023-05-17T15:40:22.071Z,20.50
2023-05-17T15:43:08.722Z,21.40
2023-05-17T15:45:55.084Z,22.12
2023-05-17T15:48:41.813Z,21.98
2023-05-17T15:51:28.343Z,21.93
2023-05-17T15:54:15.618Z,22.72
2023-05-17T15:57:03.387Z,23.10
2023-05-17T15:59:51.127Z,22.78
2023-05-17T16:02:37.565Z,22.48
2023-05-17T16:05:24.154Z,23.07
2023-05-17T16:08:12.317Z,22.42
2023-05-17T16:10:59.782Z,23.51
2023-05-17T16:13:49.297Z,21.97
2023-05-17T16:29:00.933Z,22.85
2023-05-17T16:31:48.974Z,22.91
2023-05-17T16:34:35.795Z,21.76
2023-05-17T16:37:21.869Z,22.06
2023-05-17T16:40:10.628Z,22.55
2023-05-17T16:42:57.154Z,21.62
2023-05-17T16:45:45.612Z,21.62
2023-05-17T16:48:32.267Z,21.64
2023-05-17T16:51:18.682Z,21.87
2023-05-17T16:54:05.421Z,21.51
2023-05-17T16:56:51.704Z,21.27
2023-05-17T16:59:39.953Z,20.19
2023-05-17T17:02:31.473Z,19.80
2023-05-17T17:05:27.527Z,18.72
2023-05-17T17:08:13.722Z,17.84
2023-05-17T17:11:01.144Z,17.44
2023-05-17T17:13:48.148Z,16.66
2023-05-17T17:16:37.476Z,16.69
2023-05-17T17:19:25.861Z,16.96
2023-05-17T17:22:14.504Z,16.79
2023-05-17T17:25:01.223Z,16.78
2023-05-17T17:27:47.690Z,16.38
2023-05-17T17:30:34.097Z,16.66
2023-05-17T17:33:22.016Z,16.28
2023-05-17T17:36:13.248Z,16.02
2023-05-17T17:39:00.510Z,15.76
2023-05-17T17:41:46.748Z,15.86
2023-05-17T17:44:33.151Z,16.21
2023-05-17T17:47:22.845Z,16.11
2023-05-17T17:50:10.883Z,16.10
2023-05-17T17:53:01.560Z,15.90
2023-05-17T17:55:51.756Z,15.27
2023-05-17T17:58:38.332Z,15.13
2023-05-17T18:01:25.536Z,15.28
2023-05-17T18:04:13.726Z,15.83
2023-05-17T18:07:01.980Z,15.76
2023-05-17T18:09:50.893Z,16.03
2023-05-17T18:12:37.369Z,15.86
2023-05-17T18:15:23.976Z,16.20
2023-05-17T18:18:10.535Z,16.26
2023-05-17T18:20:57.252Z,16.25
2023-05-17T18:23:43.794Z,15.88
2023-05-17T18:26:31.651Z,15.46
2023-05-17T18:29:17.700Z,15.19
2023-05-17T18:32:03.928Z,15.24
2023-05-17T18:34:50.572Z,15.25
2023-05-17T18:37:36.662Z,15.36
2023-05-17T18:40:23.192Z,15.19
2023-05-17T18:43:12.185Z,15.26
2023-05-17T18:45:58.640Z,15.10
2023-05-17T18:48:45.161Z,15.11
2023-05-17T18:51:32.593Z,15.35
2023-05-17T18:54:19.405Z,14.90
2023-05-17T18:57:06.747Z,14.73
2023-05-17T18:59:55.133Z,14.21
2023-05-17T19:19:31.089Z,14.16
2023-05-17T19:22:18.104Z,14.40
2023-05-17T19:25:04.590Z,13.90
2023-05-17T19:27:51.170Z,14.03
2023-05-17T19:30:37.780Z,13.48
2023-05-17T19:33:24.198Z,13.42
2023-05-17T19:36:12.076Z,13.18
2023-05-17T19:38:58.419Z,12.98
2023-05-17T19:41:44.850Z,13.27
2023-05-17T19:44:31.587Z,13.06
2023-05-17T19:47:19.217Z,13.17
2023-05-17T19:50:06.283Z,13.36
2023-05-17T19:52:54.743Z,13.07
2023-05-17T19:55:41.422Z,13.06
2023-05-17T19:58:29.269Z,13.14
2023-05-17T20:01:16.598Z,13.19
2023-05-17T20:04:03.316Z,13.01
2023-05-17T20:06:50.098Z,13.29
2023-05-17T20:09:39.099Z,12.85
2023-05-17T20:12:25.781Z,12.56
2023-05-17T20:15:12.627Z,12.50
2023-05-17T20:17:59.334Z,12.57
2023-05-17T20:20:45.892Z,12.14
2023-05-17T20:23:33.547Z,12.33
2023-05-17T20:26:25.760Z,12.02
2023-05-17T20:29:12.587Z,12.33
2023-05-17T20:31:59.735Z,12.21
2023-05-17T20:34:46.416Z,12.13
2023-05-17T20:37:32.407Z,11.97
2023-05-17T20:40:18.891Z,11.82
2023-05-17T20:43:09.630Z,11.94
2023-05-17T20:45:57.530Z,12.12
2023-05-17T20:48:46.049Z,11.94
2023-05-17T20:51:32.730Z,11.71
2023-05-17T20:54:19.323Z,11.81
2023-05-17T20:57:06.603Z,12.05
2023-05-17T20:59:54.500Z,11.79
2023-05-17T21:02:41.383Z,11.89
2023-05-17T21:05:28.354Z,12.06
2023-05-17T21:08:14.639Z,12.18
2023-05-17T21:11:01.598Z,11.88
2023-05-17T21:13:48.251Z,11.60
2023-05-17T21:16:36.291Z,11.68
2023-05-17T21:19:23.028Z,11.44
2023-05-17T21:22:09.541Z,11.63
2023-05-17T21:24:56.074Z,11.67
2023-05-17T21:27:42.490Z,11.69
2023-05-17T21:30:29.448Z,11.83
2023-05-17T21:33:17.633Z,11.55
2023-05-17T21:36:04.452Z,11.63
2023-05-17T21:38:51.070Z,11.47
2023-05-17T21:41:37.621Z,11.52
2023-05-17T21:44:24.055Z,11.45
2023-05-17T21:47:10.419Z,11.76
2023-05-17T21:49:58.006Z,12.22
2023-05-17T21:52:44.408Z,12.12
2023-05-17T21:55:40.848Z,12.05
2023-05-17T21:58:38.319Z,12.75
2023-05-17T22:01:25.298Z,12.69
2023-05-17T22:04:11.979Z,12.34
2023-05-17T22:06:59.857Z,12.53
2023-05-17T22:09:46.640Z,12.25
2023-05-17T22:12:35.027Z,11.92
